Terminal Aerodrome Forecast
Issued by NWS

Home | Current Version | Previous Version | Text Only | Print | Product List | Glossary Off
Versions: 1 2 3 4 5 6 7 8 9 10 11 12 13 14 15 16 17 18 19 20

011
FTUS43 KGRB 221014 AAA
TAFATW
TAF AMD
KATW 221014Z 2210/2306 VRB03KT 6SM -SHRA SCT015 BKN120
      TEMPO 2210/2214 4SM -SHRA BKN015
     FM221500 VRB03KT P6SM VCSH SCT015 OVC090
     FM222100 02008KT P6SM VCSH BKN025 OVC040=

USA.gov is the U.S. government's official web portal to all federal, state and local government web resources and services.